Pagrindinis puslapis
METAR-TAF:

METAR-TAF

Oro uostai :

Šo de Fonas, Šveicarija

platuma: 47-05-03N, ilguma: 006-47-37E, Aukštis: 1027 m

Dabartinis oras

Ataskaita buvo paskelbta 22 minutes, ne 20:20 UTC
Vėjas 3 kt nuo kintamojo kryptimis
Temperatūra 6°C
Drėgmė 70%
Slėgis 1013 hPa
Matomumas 10 km arba daugiau
Išsisklaidę debesys ne aukštis 3200 ft
Su prošvaistėmis ne aukštis 3600 ft

METAR: LSGC 272020Z AUTO VRB03KT 9999 SCT032 BKN036 06/01 Q1013

Laikas: 21:42 (20:42 UTC)

Prognozė

Ataskaita buvo paskelbta 6 valandos ir 17 minutes, ne 14:25 UTC
Prognozė galioja nuo 27 metu 15 UTC su 27 metu 24 UTC
Vėjas 8 kt iš Pietvakarių
Matomumas 10 km arba daugiau
Mažai debesys ne aukštis 1000 ft
Su prošvaistėmis ne aukštis 2500 ft

TAF: LSGC 271425Z 2715/2724 23008KT 9999 FEW010 BKN025

Orai ataskaitas ir orų prognozės (METAR, TAF).

turimą stotys yra geltonos ir raudonos taškus žemėlapyje.

Perkelti pele per norėdami pamatyti stoties vardą.

Tada spustelėkite, norėdami matyti oro stebėjimo ir prognozės.

Norėdami pakeisti žemėlapį: spustelėkite ant žalios mygtukų su juodo kryžiaus žemyn,; žalią mygtuką su brūkšneliu, jei norite nutolinti; arba žalių rodyklių gretimoms žemėlapius.


METAR-TAF: